Time;durP1;ratioP1;P1;durP2;ratioP2;P2;SDS_P1;SDS_P2;PMS_P1;PMS_P2;Temp;Humidity;BMP_temperature;BMP_pressure;BME280_temperature;BME280_humidity;BME280_pressure;Samples;Min_cycle;Max_cycle;Signal;HPM_P1;HPM_P2
2023/01/20 00:01:10;;;;;;;3.50;3.40;;;-0.50;99.90;;;;;;5047947;28;20037;-74
2023/01/20 00:03:37;;;;;;;1.70;1.70;;;-0.50;99.90;;;;;;5044610;28;20122;-73
2023/01/20 00:06:03;;;;;;;1.70;1.70;;;-0.60;99.90;;;;;;5057930;28;20079;-74
2023/01/20 00:08:29;;;;;;;2.75;2.65;;;-0.60;99.90;;;;;;5023581;28;20049;-73
2023/01/20 00:10:54;;;;;;;1.85;1.83;;;-0.50;99.90;;;;;;5030076;28;20103;-74
2023/01/20 00:13:20;;;;;;;6.45;6.25;;;-0.50;99.90;;;;;;5055322;28;20075;-73
2023/01/20 00:15:45;;;;;;;1.90;1.90;;;-0.50;99.90;;;;;;5029876;28;20056;-74
2023/01/20 00:18:11;;;;;;;1.80;1.80;;;-0.40;99.90;;;;;;5026935;28;20051;-74
2023/01/20 00:20:36;;;;;;;3.67;3.58;;;-0.40;99.90;;;;;;5048556;28;20027;-74
2023/01/20 00:23:02;;;;;;;2.88;2.78;;;-0.30;99.90;;;;;;5038853;28;20025;-74
2023/01/20 00:25:28;;;;;;;2.20;2.10;;;-0.30;99.90;;;;;;5047290;28;20112;-74
2023/01/20 00:27:53;;;;;;;1.88;1.88;;;-0.30;99.90;;;;;;5026336;28;20036;-74
2023/01/20 00:30:19;;;;;;;2.65;2.58;;;-0.30;99.90;;;;;;5068231;28;20436;-74
2023/01/20 00:32:45;;;;;;;2.15;2.15;;;-0.20;99.90;;;;;;5074382;28;20025;-74
2023/01/20 00:35:11;;;;;;;2.72;2.63;;;-0.20;99.90;;;;;;5029748;28;20144;-74
2023/01/20 00:37:37;;;;;;;2.40;2.30;;;-0.20;99.90;;;;;;5054734;28;20037;-74
2023/01/20 00:40:04;;;;;;;2.67;2.58;;;-0.20;99.90;;;;;;5029729;28;20052;-74
2023/01/20 00:42:29;;;;;;;2.42;2.33;;;-0.20;99.90;;;;;;5032999;28;20112;-74
2023/01/20 00:44:55;;;;;;;2.00;2.00;;;-0.10;99.90;;;;;;5048300;28;20457;-74
2023/01/20 00:47:21;;;;;;;2.22;2.20;;;-0.10;99.90;;;;;;5043999;28;20056;-74
2023/01/20 00:49:46;;;;;;;2.80;2.70;;;-0.10;99.90;;;;;;5057731;28;20037;-74
2023/01/20 00:52:12;;;;;;;2.08;2.08;;;-0.10;99.90;;;;;;5044136;28;20021;-74
2023/01/20 00:54:38;;;;;;;2.22;2.17;;;-0.10;99.90;;;;;;5047758;28;20064;-76
2023/01/20 00:57:03;;;;;;;2.10;2.10;;;-0.10;99.90;;;;;;5053659;28;20036;-76
2023/01/20 00:59:29;;;;;;;1.60;1.60;;;-0.20;99.90;;;;;;5057656;28;20035;-76
2023/01/20 01:01:55;;;;;;;1.77;1.77;;;-0.30;99.90;;;;;;5052852;28;20032;-76
2023/01/20 01:04:20;;;;;;;2.35;2.25;;;-0.40;99.90;;;;;;5044181;28;20467;-76
2023/01/20 01:06:46;;;;;;;1.60;1.60;;;-0.30;99.90;;;;;;5038031;28;20160;-76
2023/01/20 01:09:11;;;;;;;2.05;2.05;;;-0.30;99.90;;;;;;5026203;28;20119;-75
2023/01/20 01:11:37;;;;;;;2.78;2.33;;;-0.30;99.90;;;;;;5040972;28;20026;-74
2023/01/20 01:14:02;;;;;;;13.35;4.13;;;-0.30;99.90;;;;;;5026902;28;20032;-74
2023/01/20 01:16:28;;;;;;;2.30;2.20;;;-0.20;99.90;;;;;;5047538;28;20033;-74
2023/01/20 01:18:54;;;;;;;4.00;3.70;;;-0.20;99.90;;;;;;5043948;28;20021;-74
2023/01/20 01:21:20;;;;;;;2.50;2.40;;;-0.20;99.90;;;;;;5040890;28;20393;-75
2023/01/20 01:23:46;;;;;;;2.03;2.03;;;-0.20;99.90;;;;;;5025868;28;20033;-74
2023/01/20 01:26:12;;;;;;;1.75;1.75;;;-0.20;99.90;;;;;;5047453;28;20160;-75
2023/01/20 01:28:38;;;;;;;1.70;1.70;;;-0.20;99.90;;;;;;5026181;28;20463;-74
2023/01/20 01:31:05;;;;;;;2.13;2.13;;;-0.20;99.90;;;;;;5067119;28;20025;-74
2023/01/20 01:33:31;;;;;;;2.17;2.17;;;-0.10;99.90;;;;;;5043930;28;20030;-74
2023/01/20 01:35:59;;;;;;;1.65;1.65;;;0.00;99.90;;;;;;5047291;28;20021;-75
2023/01/20 01:38:25;;;;;;;2.10;2.10;;;0.00;99.90;;;;;;5044058;28;20025;-73
2023/01/20 01:40:52;;;;;;;2.55;2.45;;;0.00;99.90;;;;;;5040375;28;20032;-73
2023/01/20 01:43:20;;;;;;;1.95;1.95;;;-0.10;99.90;;;;;;5043070;28;20479;-74
2023/01/20 01:45:46;;;;;;;2.25;2.20;;;-0.10;99.90;;;;;;5047155;28;20022;-74
2023/01/20 01:48:11;;;;;;;2.05;2.05;;;-0.10;99.90;;;;;;5026384;28;20040;-74
2023/01/20 01:50:49;;;;;;;1.95;1.95;;;-0.10;99.90;;;;;;5040271;28;20021;-74
2023/01/20 01:53:14;;;;;;;2.00;2.00;;;-0.10;99.90;;;;;;5041161;28;20025;-74
2023/01/20 01:55:47;;;;;;;1.88;1.88;;;0.00;99.90;;;;;;5046823;28;20026;-74
2023/01/20 01:58:16;;;;;;;3.78;3.63;;;-0.10;99.90;;;;;;5015881;28;20040;-74
2023/01/20 02:00:43;;;;;;;2.45;2.35;;;-0.20;99.90;;;;;;5028510;28;20025;-73
2023/01/20 02:03:09;;;;;;;1.75;1.75;;;-0.20;99.90;;;;;;5046896;28;20111;-75
2023/01/20 02:05:36;;;;;;;1.95;1.95;;;-0.10;99.90;;;;;;5015520;28;20060;-74
2023/01/20 02:08:02;;;;;;;3.13;3.03;;;-0.10;99.90;;;;;;5046390;28;20082;-75
2023/01/20 02:10:28;;;;;;;2.10;2.10;;;-0.10;99.90;;;;;;5022965;28;20023;-75
2023/01/20 02:12:54;;;;;;;1.90;1.90;;;-0.10;99.90;;;;;;5039480;28;20032;-74
2023/01/20 02:15:26;;;;;;;1.73;1.73;;;-0.10;99.90;;;;;;5046006;28;20445;-75
2023/01/20 02:18:09;;;;;;;3.08;2.97;;;-0.20;99.90;;;;;;5028365;28;20025;-75
2023/01/20 02:21:03;;;;;;;1.60;1.60;;;-0.20;99.90;;;;;;5033088;28;20044;-74
2023/01/20 02:23:50;;;;;;;1.90;1.90;;;-0.20;99.90;;;;;;5044034;23;20482;-72
2023/01/20 02:26:28;;;;;;;1.80;1.80;;;-0.10;99.90;;;;;;5044380;28;20032;-72
2023/01/20 02:29:05;;;;;;;1.90;1.90;;;-0.20;99.90;;;;;;5052711;28;20485;-71
2023/01/20 02:32:01;;;;;;;1.92;1.92;;;-0.10;99.90;;;;;;5032868;28;20104;-71
2023/01/20 02:34:38;;;;;;;2.50;2.40;;;-0.20;99.90;;;;;;5017192;28;20021;-72
2023/01/20 02:37:18;;;;;;;2.30;2.20;;;-0.30;99.90;;;;;;5030846;28;20548;-72
2023/01/20 02:40:00;;;;;;;1.75;1.75;;;-0.30;99.90;;;;;;5020574;28;20036;-72
2023/01/20 02:42:58;;;;;;;2.03;2.03;;;-0.30;99.90;;;;;;5019210;28;20373;-72
2023/01/20 02:45:47;;;;;;;1.70;1.70;;;-0.30;99.90;;;;;;5032444;28;20052;-72
2023/01/20 02:48:24;;;;;;;1.70;1.70;;;-0.30;99.90;;;;;;5021843;28;20129;-72
2023/01/20 02:51:25;;;;;;;1.63;1.63;;;-0.40;99.90;;;;;;5031639;28;20148;-71
2023/01/20 02:53:59;;;;;;;1.80;1.80;;;-0.50;99.90;;;;;;5032406;28;20060;-71
2023/01/20 02:56:27;;;;;;;2.75;2.65;;;-0.40;99.90;;;;;;5014730;28;20475;-72
2023/01/20 02:59:01;;;;;;;1.75;1.75;;;-0.30;99.90;;;;;;5032070;28;20402;-71
2023/01/20 03:01:32;;;;;;;2.38;2.28;;;-0.30;99.90;;;;;;5014676;28;20108;-71
2023/01/20 03:04:00;;;;;;;2.92;2.78;;;-0.30;99.90;;;;;;5025401;28;20419;-71
2023/01/20 03:06:31;;;;;;;2.92;2.83;;;-0.30;99.90;;;;;;5012348;28;20490;-71
2023/01/20 03:08:59;;;;;;;2.00;2.00;;;-0.20;99.90;;;;;;5020288;28;20030;-72
2023/01/20 03:11:26;;;;;;;2.45;2.35;;;-0.20;99.90;;;;;;5030642;28;20034;-72
2023/01/20 03:14:06;;;;;;;2.00;2.00;;;-0.20;99.90;;;;;;5012303;28;20022;-72
2023/01/20 03:16:32;;;;;;;1.90;1.90;;;-0.20;99.90;;;;;;5011355;28;20053;-72
2023/01/20 03:18:57;;;;;;;3.40;3.30;;;-0.20;99.90;;;;;;5031865;28;20431;-72
2023/01/20 03:21:23;;;;;;;2.00;2.00;;;-0.20;99.90;;;;;;5031964;28;20040;-72
2023/01/20 03:23:52;;;;;;;1.80;1.80;;;-0.30;99.90;;;;;;5021698;28;20038;-72
2023/01/20 03:26:19;;;;;;;2.20;2.17;;;-0.30;99.90;;;;;;5011618;28;20427;-72
2023/01/20 03:28:47;;;;;;;2.45;2.35;;;-0.20;99.90;;;;;;5022387;28;20018;-71
2023/01/20 03:31:42;;;;;;;3.65;3.55;;;-0.10;99.90;;;;;;5014418;28;20110;-72
2023/01/20 03:34:11;;;;;;;2.00;2.00;;;-0.20;99.90;;;;;;5012038;28;20026;-71
2023/01/20 03:36:39;;;;;;;2.25;2.17;;;-0.20;99.90;;;;;;5013899;28;20052;-72
2023/01/20 03:39:05;;;;;;;2.45;2.35;;;-0.20;99.90;;;;;;5011741;28;20032;-72
2023/01/20 03:41:33;;;;;;;2.33;2.22;;;-0.20;99.90;;;;;;4994469;28;20509;-73
2023/01/20 03:44:17;;;;;;;2.00;2.00;;;-0.20;99.90;;;;;;5014678;28;20033;-72
2023/01/20 03:47:20;;;;;;;5.60;5.30;;;-0.20;99.90;;;;;;5002173;28;20533;-72
2023/01/20 03:49:57;;;;;;;2.22;2.17;;;-0.10;99.90;;;;;;5011966;28;20038;-72
2023/01/20 03:52:40;;;;;;;2.20;2.15;;;-0.20;99.90;;;;;;5023885;28;20033;-73
2023/01/20 03:55:14;;;;;;;1.83;1.83;;;-0.20;99.90;;;;;;5025843;28;20470;-73
2023/01/20 03:57:52;;;;;;;2.67;2.58;;;-0.30;99.90;;;;;;5023205;28;20648;-71
2023/01/20 04:00:20;;;;;;;1.83;1.83;;;-0.30;99.90;;;;;;5028277;28;20036;-71
2023/01/20 04:02:46;;;;;;;2.03;2.03;;;-0.20;99.90;;;;;;5021672;28;20036;-71
2023/01/20 04:05:12;;;;;;;2.78;2.67;;;-0.30;99.90;;;;;;4994317;28;20439;-71
2023/01/20 04:07:42;;;;;;;1.60;1.60;;;-0.30;99.90;;;;;;5011526;28;20030;-72
2023/01/20 04:10:11;;;;;;;1.75;1.75;;;-0.30;99.90;;;;;;4995108;28;20026;-72
2023/01/20 04:12:36;;;;;;;1.80;1.80;;;-0.40;99.90;;;;;;5013725;28;20021;-73
2023/01/20 04:15:03;;;;;;;1.95;1.95;;;-0.40;99.90;;;;;;5014196;28;20085;-73
2023/01/20 04:17:29;;;;;;;1.77;1.77;;;-0.40;99.90;;;;;;5002715;28;20030;-73
2023/01/20 04:19:56;;;;;;;4.28;4.07;;;-0.50;99.90;;;;;;5016218;28;20029;-73
2023/01/20 04:22:44;;;;;;;1.60;1.60;;;-0.40;99.90;;;;;;5031324;28;20087;-72
2023/01/20 04:25:28;;;;;;;2.17;2.10;;;-0.50;99.90;;;;;;5023621;28;20034;-73
2023/01/20 04:27:53;;;;;;;1.85;1.85;;;-0.50;99.90;;;;;;5028296;28;20109;-72
2023/01/20 04:30:19;;;;;;;1.70;1.70;;;-0.60;99.90;;;;;;5031244;28;20096;-72
2023/01/20 04:32:44;;;;;;;1.73;1.73;;;-0.60;99.90;;;;;;5015527;28;20061;-73
2023/01/20 04:35:17;;;;;;;2.03;2.03;;;-0.30;99.90;;;;;;5024727;28;20034;-72
2023/01/20 04:37:43;;;;;;;1.60;1.60;;;-0.70;99.90;;;;;;5031446;28;20114;-72
2023/01/20 04:40:10;;;;;;;7.30;6.75;;;-0.70;99.90;;;;;;5016242;28;20065;-72
2023/01/20 04:42:35;;;;;;;2.22;2.13;;;-0.70;99.90;;;;;;5015100;28;20116;-71
2023/01/20 04:45:01;;;;;;;2.00;2.00;;;-0.80;99.90;;;;;;5015129;28;20105;-71
2023/01/20 04:47:32;;;;;;;2.20;2.13;;;-0.90;99.90;;;;;;5014813;28;20030;-71
2023/01/20 04:49:58;;;;;;;2.28;2.17;;;-0.90;99.90;;;;;;5015064;28;20054;-71
2023/01/20 04:52:24;;;;;;;1.60;1.60;;;-1.00;99.90;;;;;;5014925;28;20514;-70
2023/01/20 04:54:49;;;;;;;1.60;1.60;;;-1.00;99.90;;;;;;5014950;28;20095;-70
2023/01/20 04:57:15;;;;;;;3.38;3.28;;;-1.10;99.90;;;;;;5019809;28;20100;-70
2023/01/20 04:59:41;;;;;;;1.50;1.50;;;-1.20;99.90;;;;;;5034613;28;20059;-70
2023/01/20 05:02:06;;;;;;;3.10;2.95;;;-1.20;99.90;;;;;;5034481;28;20083;-71
2023/01/20 05:04:32;;;;;;;2.28;2.17;;;-1.30;99.90;;;;;;5023037;28;20030;-71
2023/01/20 05:06:57;;;;;;;1.67;1.67;;;-1.30;99.90;;;;;;5014469;28;20026;-71
2023/01/20 05:09:23;;;;;;;2.72;2.63;;;-1.20;99.90;;;;;;5014774;28;20018;-71
2023/01/20 05:11:49;;;;;;;1.30;1.30;;;-1.30;99.90;;;;;;5019035;28;20025;-71
2023/01/20 05:14:14;;;;;;;2.75;2.65;;;-1.30;99.90;;;;;;5023459;28;20464;-72
2023/01/20 05:16:40;;;;;;;1.48;1.48;;;-1.30;99.90;;;;;;5010212;28;20026;-72
2023/01/20 05:19:05;;;;;;;8.00;7.15;;;-1.30;99.90;;;;;;5024963;28;20017;-72
2023/01/20 05:21:31;;;;;;;1.45;1.45;;;-1.40;99.90;;;;;;5017091;28;20399;-71
2023/01/20 05:23:57;;;;;;;1.52;1.52;;;-1.40;99.90;;;;;;5014391;28;20144;-72
2023/01/20 05:26:23;;;;;;;1.50;1.50;;;-1.50;99.90;;;;;;5018156;28;20029;-72
2023/01/20 05:28:49;;;;;;;4.60;4.22;;;-1.50;99.90;;;;;;5033977;28;20152;-72
2023/01/20 05:31:14;;;;;;;6.78;2.85;;;-1.50;99.90;;;;;;5020877;28;20445;-72
2023/01/20 05:33:40;;;;;;;1.60;1.60;;;-1.50;99.90;;;;;;5005020;28;20049;-72
2023/01/20 05:36:07;;;;;;;2.83;2.70;;;-1.50;99.90;;;;;;5014267;28;20112;-71
2023/01/20 05:38:32;;;;;;;3.72;3.53;;;-1.40;99.90;;;;;;5025302;28;20068;-71
2023/01/20 05:41:06;;;;;;;6.57;5.00;;;-1.50;99.90;;;;;;5015941;28;20022;-71
2023/01/20 05:43:32;;;;;;;2.85;2.75;;;-1.70;99.90;;;;;;5013963;28;20024;-72
2023/01/20 05:45:58;;;;;;;1.70;1.70;;;-1.60;99.90;;;;;;5014011;28;20029;-71
2023/01/20 05:48:24;;;;;;;1.77;1.77;;;-1.60;99.90;;;;;;5013312;28;20442;-71
2023/01/20 05:50:50;;;;;;;2.78;2.65;;;-1.60;99.90;;;;;;5019902;28;20057;-71
2023/01/20 05:53:16;;;;;;;5.35;4.20;;;-1.60;99.90;;;;;;5033592;28;20025;-71
2023/01/20 05:55:42;;;;;;;1.88;1.88;;;-1.60;99.90;;;;;;5027578;28;20026;-71
2023/01/20 05:58:08;;;;;;;3.50;3.20;;;-1.60;99.90;;;;;;5008352;28;20380;-72
2023/01/20 06:00:34;;;;;;;3.30;2.60;;;-1.60;99.90;;;;;;5033499;28;20025;-72
2023/01/20 06:02:59;;;;;;;1.67;1.67;;;-1.50;99.90;;;;;;5033548;28;20428;-72
2023/01/20 06:05:25;;;;;;;1.30;1.30;;;-1.50;99.90;;;;;;5033382;28;20037;-72
2023/01/20 06:07:54;;;;;;;1.40;1.40;;;-1.60;99.90;;;;;;5033274;28;20140;-72
2023/01/20 06:10:19;;;;;;;1.83;1.83;;;-1.60;99.90;;;;;;5013764;28;20034;-72
2023/01/20 06:12:51;;;;;;;3.45;3.28;;;-1.50;99.90;;;;;;5026501;28;20033;-72
2023/01/20 06:15:17;;;;;;;1.42;1.42;;;-1.50;99.90;;;;;;5020660;28;20025;-72
2023/01/20 06:17:42;;;;;;;1.88;1.88;;;-1.50;99.90;;;;;;5001853;28;20037;-71
2023/01/20 06:20:09;;;;;;;2.08;2.08;;;-1.50;99.90;;;;;;5020213;28;20506;-72
2023/01/20 06:22:35;;;;;;;2.10;2.00;;;-1.60;99.90;;;;;;5032930;28;20029;-72
2023/01/20 06:25:00;;;;;;;1.52;1.52;;;-1.70;99.90;;;;;;5033101;28;20025;-72
2023/01/20 06:27:26;;;;;;;1.48;1.45;;;-1.60;99.90;;;;;;5019372;28;20535;-72
2023/01/20 06:29:51;;;;;;;2.25;2.15;;;-1.50;99.90;;;;;;5025820;28;20025;-72
2023/01/20 06:32:18;;;;;;;2.22;2.15;;;-1.50;99.90;;;;;;5022283;28;20028;-72
2023/01/20 06:34:43;;;;;;;1.85;1.85;;;-1.40;99.90;;;;;;5032920;28;20099;-71
2023/01/20 06:37:09;;;;;;;2.72;2.63;;;-1.40;99.90;;;;;;5032434;28;20056;-72
2023/01/20 06:39:34;;;;;;;3.38;2.92;;;-1.40;99.90;;;;;;5019616;28;20040;-71
2023/01/20 06:42:00;;;;;;;2.03;2.03;;;-1.30;99.90;;;;;;5020038;28;20029;-72
2023/01/20 06:44:26;;;;;;;1.52;1.52;;;-1.30;99.90;;;;;;5012902;28;20026;-72
2023/01/20 06:46:52;;;;;;;1.65;1.65;;;-1.40;99.90;;;;;;5012656;28;20487;-71
2023/01/20 06:49:18;;;;;;;2.00;2.00;;;-1.30;99.90;;;;;;5014215;28;20079;-71
2023/01/20 06:51:43;;;;;;;1.65;1.65;;;-1.40;99.90;;;;;;5014847;28;20028;-71
2023/01/20 06:54:09;;;;;;;1.88;1.88;;;-1.40;99.90;;;;;;4995800;28;20476;-72
2023/01/20 06:56:35;;;;;;;1.75;1.75;;;-1.20;99.90;;;;;;5024982;28;20061;-72
2023/01/20 06:59:00;;;;;;;1.80;1.80;;;-1.20;99.90;;;;;;5013718;28;20511;-72
2023/01/20 07:01:28;;;;;;;3.22;3.03;;;-1.20;99.90;;;;;;4994338;28;20113;-72
2023/01/20 07:03:54;;;;;;;2.80;2.60;;;-1.30;99.90;;;;;;5026158;28;20466;-71
2023/01/20 07:06:40;;;;;;;2.30;2.20;;;-1.20;99.90;;;;;;4994912;28;20037;-71
2023/01/20 07:09:10;;;;;;;1.50;1.50;;;-1.20;99.90;;;;;;5020798;28;20026;-72
2023/01/20 07:11:39;;;;;;;3.50;3.30;;;-1.20;99.90;;;;;;5001149;28;20026;-73
2023/01/20 07:14:05;;;;;;;1.52;1.52;;;-1.30;99.90;;;;;;5004582;28;20029;-74
2023/01/20 07:16:32;;;;;;;2.70;2.60;;;-1.40;99.90;;;;;;5022333;28;20819;-72
2023/01/20 07:18:57;;;;;;;3.03;2.92;;;-1.40;99.90;;;;;;5017781;28;20033;-72
2023/01/20 07:21:23;;;;;;;1.83;1.83;;;-1.50;99.90;;;;;;5030177;28;20100;-72
2023/01/20 07:23:49;;;;;;;2.00;2.00;;;-1.60;99.90;;;;;;5031534;28;20072;-72
2023/01/20 07:26:21;;;;;;;1.75;1.75;;;-1.60;99.90;;;;;;5013808;28;20021;-72
2023/01/20 07:28:47;;;;;;;6.53;5.90;;;-1.50;99.90;;;;;;5020582;28;20030;-72
2023/01/20 07:31:15;;;;;;;2.28;2.20;;;-1.40;99.90;;;;;;5029064;28;20100;-71
2023/01/20 07:33:41;;;;;;;2.17;2.10;;;-1.30;99.90;;;;;;5013936;28;20049;-72
2023/01/20 07:36:08;;;;;;;2.47;2.38;;;-1.10;99.90;;;;;;5018247;28;20068;-73
2023/01/20 07:38:34;;;;;;;2.85;2.75;;;-1.10;99.90;;;;;;5022730;28;20054;-71
2023/01/20 07:41:04;;;;;;;2.22;2.20;;;-1.00;99.90;;;;;;5027135;28;20022;-72
2023/01/20 07:43:30;;;;;;;2.83;2.72;;;-1.00;99.90;;;;;;5023700;28;20021;-73
2023/01/20 07:45:58;;;;;;;3.25;3.13;;;-0.90;99.90;;;;;;5013434;28;20503;-73
2023/01/20 07:48:24;;;;;;;2.17;2.17;;;-0.80;99.90;;;;;;5023180;28;20036;-72
2023/01/20 07:51:00;;;;;;;2.33;2.22;;;-0.80;99.90;;;;;;5013000;28;20391;-72
2023/01/20 07:53:27;;;;;;;3.40;3.30;;;-0.80;99.90;;;;;;5012018;28;20022;-72
2023/01/20 07:55:52;;;;;;;13.15;9.60;;;-0.70;99.90;;;;;;5030117;28;20021;-72
2023/01/20 07:58:18;;;;;;;2.42;2.33;;;-0.60;99.90;;;;;;5031038;28;20283;-72
2023/01/20 08:00:47;;;;;;;2.00;2.00;;;-0.60;99.90;;;;;;5012760;28;20487;-72
2023/01/20 08:03:13;;;;;;;4.70;4.50;;;-0.80;99.90;;;;;;5005153;28;20116;-72
2023/01/20 08:05:39;;;;;;;1.65;1.65;;;-0.70;99.90;;;;;;5012072;28;20556;-72
2023/01/20 08:08:04;;;;;;;1.90;1.90;;;-0.80;99.90;;;;;;5011008;28;20026;-73
2023/01/20 08:10:30;;;;;;;2.10;2.10;;;-0.70;99.90;;;;;;5019087;28;20031;-72
2023/01/20 08:12:57;;;;;;;2.40;2.30;;;-0.60;99.90;;;;;;5020662;28;20050;-72
2023/01/20 08:15:22;;;;;;;5.47;5.00;;;-0.80;99.90;;;;;;5023344;28;20038;-72
2023/01/20 08:17:55;;;;;;;1.80;1.80;;;-0.80;99.90;;;;;;5003707;28;20511;-72
2023/01/20 08:20:21;;;;;;;3.00;2.90;;;-0.80;99.90;;;;;;5027363;28;20030;-72
2023/01/20 08:22:46;;;;;;;2.13;2.13;;;-0.70;99.90;;;;;;5028826;28;20128;-72
2023/01/20 08:25:12;;;;;;;2.00;2.00;;;-0.70;99.90;;;;;;5023530;28;20100;-72
2023/01/20 08:27:38;;;;;;;5.13;2.58;;;-0.70;99.90;;;;;;5021420;28;20538;-71
2023/01/20 08:30:04;;;;;;;4.07;3.92;;;-0.60;99.90;;;;;;5017618;28;20017;-72
2023/01/20 08:32:29;;;;;;;2.03;2.03;;;-0.50;99.90;;;;;;5021887;28;20046;-73
2023/01/20 08:34:55;;;;;;;2.20;2.13;;;-0.60;99.90;;;;;;5027031;28;20471;-73
2023/01/20 08:37:21;;;;;;;2.05;2.05;;;-0.40;99.90;;;;;;5023518;28;20029;-73
2023/01/20 08:39:46;;;;;;;3.03;2.90;;;-0.20;99.90;;;;;;5012779;28;20032;-73
2023/01/20 08:42:12;;;;;;;2.47;2.38;;;-0.20;99.90;;;;;;5010586;28;20116;-73
2023/01/20 08:44:37;;;;;;;2.33;2.22;;;-0.30;99.90;;;;;;5026027;28;20033;-72
2023/01/20 08:47:03;;;;;;;2.92;2.83;;;-0.20;99.90;;;;;;5013752;28;20444;-73
2023/01/20 08:49:28;;;;;;;2.50;2.40;;;-0.10;99.90;;;;;;5012865;28;20445;-72
2023/01/20 08:51:55;;;;;;;2.83;2.72;;;0.00;99.90;;;;;;5027852;28;20120;-72
2023/01/20 08:54:21;;;;;;;2.05;2.05;;;-0.20;99.90;;;;;;5022622;28;20025;-72
2023/01/20 08:56:50;;;;;;;3.50;3.25;;;-0.20;99.90;;;;;;5033288;28;20446;-72
2023/01/20 08:59:15;;;;;;;2.80;2.70;;;-0.10;99.90;;;;;;4997075;28;20033;-73
2023/01/20 09:01:42;;;;;;;2.40;2.30;;;0.10;99.90;;;;;;4997498;28;20030;-73
2023/01/20 09:04:08;;;;;;;2.67;2.58;;;0.20;99.90;;;;;;5014715;28;20025;-73
2023/01/20 09:06:42;;;;;;;2.63;2.53;;;0.30;99.90;;;;;;5014599;28;20029;-73
2023/01/20 09:09:08;;;;;;;2.75;2.65;;;0.30;99.90;;;;;;5014189;28;20097;-73
2023/01/20 09:11:34;;;;;;;3.67;3.58;;;0.40;99.90;;;;;;5014672;28;20180;-73
2023/01/20 09:13:59;;;;;;;2.28;2.20;;;0.30;99.90;;;;;;5013984;28;20498;-73
2023/01/20 09:16:25;;;;;;;2.28;2.20;;;0.50;99.90;;;;;;5023556;28;20030;-73
2023/01/20 09:18:50;;;;;;;2.50;2.40;;;0.60;99.90;;;;;;5007027;28;20033;-73
2023/01/20 09:21:16;;;;;;;2.28;2.20;;;0.50;99.90;;;;;;5032391;28;20037;-74
2023/01/20 09:23:42;;;;;;;1.75;1.75;;;0.40;99.90;;;;;;5018392;28;20033;-74
2023/01/20 09:26:07;;;;;;;2.72;2.63;;;0.40;99.90;;;;;;5031322;28;20483;-74
2023/01/20 09:28:34;;;;;;;2.67;2.58;;;0.50;99.90;;;;;;5024919;28;20388;-74
2023/01/20 09:31:07;;;;;;;3.03;2.92;;;0.40;99.90;;;;;;5016959;28;20084;-73
2023/01/20 09:33:37;;;;;;;7.32;4.38;;;0.50;99.90;;;;;;5023932;28;20073;-74
2023/01/20 09:36:03;;;;;;;2.55;2.45;;;0.30;99.90;;;;;;5031458;28;20105;-73
2023/01/20 09:44:28;;;;;;;2.80;2.70;;;0.40;99.90;;;;;;5025913;28;20044;-75
2023/01/20 09:47:20;;;;;;;2.88;2.78;;;0.50;99.90;;;;;;5013588;28;20113;-74
2023/01/20 09:53:14;;;;;;;3.85;3.75;;;0.40;99.90;;;;;;5021651;28;20028;-73
2023/01/20 09:55:52;;;;;;;6.45;5.93;;;0.50;99.90;;;;;;5020078;28;20048;-74
2023/01/20 09:58:38;;;;;;;2.90;2.80;;;0.50;99.90;;;;;;5020178;28;20152;-73
2023/01/20 10:01:23;;;;;;;2.70;2.60;;;0.60;99.90;;;;;;5015786;28;20490;-76
2023/01/20 10:03:57;;;;;;;2.25;2.17;;;0.70;99.90;;;;;;5001360;28;20129;-74
2023/01/20 10:06:30;;;;;;;4.30;4.15;;;0.80;99.90;;;;;;5025735;28;20391;-74
2023/01/20 10:09:04;;;;;;;3.10;3.00;;;1.00;99.90;;;;;;5006496;28;20387;-74
2023/01/20 10:11:36;;;;;;;2.75;2.65;;;1.00;99.90;;;;;;5016364;28;20033;-74
2023/01/20 10:14:24;;;;;;;3.22;3.13;;;0.90;99.90;;;;;;5023179;28;20084;-74
2023/01/20 10:16:56;;;;;;;3.35;3.25;;;0.90;99.90;;;;;;5013275;28;20036;-74
2023/01/20 10:19:32;;;;;;;10.13;3.65;;;0.70;99.90;;;;;;5026809;28;20030;-72
2023/01/20 10:22:07;;;;;;;2.58;2.47;;;0.70;99.90;;;;;;5022034;28;20364;-72
2023/01/20 10:24:47;;;;;;;2.72;2.63;;;0.80;99.90;;;;;;5020206;28;20038;-72
2023/01/20 10:27:13;;;;;;;2.50;2.40;;;0.80;99.90;;;;;;5020531;28;20029;-74
2023/01/20 10:29:45;;;;;;;2.40;2.30;;;0.80;99.90;;;;;;5030732;28;20075;-72
2023/01/20 10:32:22;;;;;;;2.55;2.45;;;0.80;99.90;;;;;;5020532;28;20036;-72
2023/01/20 10:34:52;;;;;;;2.33;2.22;;;0.90;99.90;;;;;;4995576;28;20033;-72
2023/01/20 10:37:18;;;;;;;2.45;2.35;;;1.00;99.90;;;;;;5013810;28;20033;-72
2023/01/20 10:39:52;;;;;;;2.50;2.40;;;1.10;99.90;;;;;;5007242;28;20037;-73
2023/01/20 10:42:19;;;;;;;3.25;3.15;;;1.10;99.90;;;;;;5010653;28;20039;-71
2023/01/20 10:44:46;;;;;;;2.50;2.40;;;1.20;99.90;;;;;;5032582;28;20430;-73
2023/01/20 10:47:18;;;;;;;2.78;2.67;;;1.30;99.90;;;;;;5019831;28;20742;-75
2023/01/20 10:49:53;;;;;;;2.30;2.20;;;1.30;99.90;;;;;;5001311;28;20026;-75
2023/01/20 10:52:24;;;;;;;2.90;2.80;;;1.00;99.90;;;;;;5026038;28;20026;-72
2023/01/20 10:54:59;;;;;;;2.03;2.03;;;1.00;99.90;;;;;;5023918;28;20108;-72
2023/01/20 10:57:25;;;;;;;2.25;2.17;;;1.20;99.90;;;;;;5027364;28;20367;-73
2023/01/20 10:59:59;;;;;;;2.55;2.45;;;1.30;99.90;;;;;;5007850;28;20040;-72
2023/01/20 11:02:28;;;;;;;2.30;2.20;;;1.20;99.90;;;;;;5021831;28;20026;-72
2023/01/20 11:05:00;;;;;;;2.10;2.10;;;1.40;99.90;;;;;;5025824;28;20064;-72
2023/01/20 11:07:29;;;;;;;2.00;2.00;;;1.20;99.90;;;;;;5020394;28;20537;-72
2023/01/20 11:09:55;;;;;;;2.00;2.00;;;1.50;99.90;;;;;;5018986;28;20665;-72
2023/01/20 11:12:27;;;;;;;2.47;2.38;;;1.60;99.90;;;;;;5023373;28;20022;-72
2023/01/20 11:14:56;;;;;;;2.00;2.00;;;1.60;99.90;;;;;;5025663;28;20026;-72
2023/01/20 11:17:22;;;;;;;2.58;2.47;;;1.60;99.90;;;;;;5022222;28;20033;-72
2023/01/20 11:19:53;;;;;;;1.90;1.90;;;1.70;99.90;;;;;;5018770;28;20029;-72
2023/01/20 11:22:32;;;;;;;2.75;2.65;;;1.60;99.90;;;;;;5023609;28;20030;-72
2023/01/20 11:25:00;;;;;;;3.25;3.15;;;1.70;99.90;;;;;;5016036;28;20021;-72
2023/01/20 11:27:43;;;;;;;1.88;1.88;;;1.30;99.90;;;;;;5019773;28;20033;-73
2023/01/20 11:30:35;;;;;;;2.08;2.08;;;1.20;99.90;;;;;;5003618;28;20021;-73
2023/01/20 11:33:20;;;;;;;2.00;2.00;;;1.40;99.90;;;;;;5020533;28;20398;-72
2023/01/20 11:36:02;;;;;;;3.25;3.15;;;1.50;99.90;;;;;;5011240;28;20056;-73
2023/01/20 11:38:43;;;;;;;2.05;2.05;;;1.40;99.90;;;;;;5002585;28;20117;-72
2023/01/20 11:41:23;;;;;;;1.83;1.83;;;1.50;99.90;;;;;;5018830;28;20438;-72
2023/01/20 11:43:51;;;;;;;2.65;2.55;;;1.60;99.90;;;;;;5000901;28;20026;-72
2023/01/20 11:46:22;;;;;;;2.42;2.33;;;1.50;99.90;;;;;;5022934;28;20148;-73
2023/01/20 11:48:48;;;;;;;2.42;2.33;;;1.60;99.90;;;;;;5011207;28;20710;-72
2023/01/20 11:51:24;;;;;;;3.05;2.92;;;1.60;99.90;;;;;;5000355;28;20021;-72
2023/01/20 11:54:04;;;;;;;2.45;2.35;;;1.40;99.90;;;;;;5009778;28;20048;-72
2023/01/20 11:56:39;;;;;;;11.77;4.50;;;1.40;99.90;;;;;;5024802;28;20036;-73
2023/01/20 11:59:18;;;;;;;2.78;2.67;;;1.20;99.90;;;;;;5023944;28;20024;-72
2023/01/20 12:02:07;;;;;;;3.17;3.08;;;1.30;99.90;;;;;;5025025;28;20022;-73
2023/01/20 12:04:35;;;;;;;2.00;2.00;;;1.30;99.90;;;;;;5011845;28;20459;-72
2023/01/20 12:07:12;;;;;;;2.42;2.33;;;1.20;99.90;;;;;;5024286;28;20168;-73
2023/01/20 12:09:42;;;;;;;2.03;2.03;;;1.40;99.90;;;;;;5007429;28;20032;-72
2023/01/20 12:12:29;;;;;;;2.10;2.08;;;1.30;99.90;;;;;;5019705;28;20022;-73
2023/01/20 12:15:14;;;;;;;1.88;1.88;;;1.20;99.90;;;;;;5018270;28;20029;-73
2023/01/20 12:17:54;;;;;;;2.35;2.25;;;1.20;99.90;;;;;;5017499;28;20026;-72
2023/01/20 12:20:33;;;;;;;1.83;1.83;;;1.10;99.90;;;;;;5021949;28;20022;-73
2023/01/20 12:23:38;;;;;;;2.60;2.50;;;1.30;99.90;;;;;;5006559;28;20061;-74
2023/01/20 12:26:05;;;;;;;2.05;2.05;;;1.30;99.90;;;;;;5024796;28;20105;-74
2023/01/20 12:28:56;;;;;;;2.08;2.08;;;1.40;99.90;;;;;;5020529;28;20124;-74
2023/01/20 12:31:23;;;;;;;2.28;2.20;;;1.60;99.90;;;;;;5021895;28;20038;-75
2023/01/20 12:33:58;;;;;;;3.58;3.47;;;1.70;99.90;;;;;;5023725;28;20179;-74
2023/01/20 12:36:33;;;;;;;2.47;2.38;;;1.70;99.90;;;;;;5018439;28;20025;-74
2023/01/20 12:39:10;;;;;;;2.53;2.43;;;1.70;99.90;;;;;;5018021;28;20109;-74
2023/01/20 12:41:36;;;;;;;2.08;2.08;;;1.70;99.90;;;;;;5031425;28;20411;-74
2023/01/20 12:44:21;;;;;;;2.10;2.10;;;1.70;99.90;;;;;;5030871;28;20087;-75
2023/01/20 12:46:56;;;;;;;3.50;3.30;;;1.60;99.90;;;;;;5019425;28;20388;-72
2023/01/20 12:50:04;;;;;;;1.80;1.80;;;1.80;99.90;;;;;;5024900;28;20026;-74
2023/01/20 12:52:40;;;;;;;1.60;1.60;;;1.60;99.90;;;;;;5024627;28;20018;-72
2023/01/20 12:55:16;;;;;;;3.08;2.97;;;1.80;99.90;;;;;;5024697;28;20049;-74
2023/01/20 12:57:59;;;;;;;2.05;2.05;;;2.00;99.90;;;;;;5019141;28;20045;-72
2023/01/20 13:00:31;;;;;;;2.70;2.60;;;2.00;99.90;;;;;;5016083;28;20060;-74
2023/01/20 13:03:40;;;;;;;1.88;1.88;;;1.90;99.90;;;;;;5014598;28;20025;-74
2023/01/20 13:06:08;;;;;;;1.90;1.90;;;2.00;99.90;;;;;;4984657;28;20034;-74
2023/01/20 13:08:39;;;;;;;2.67;2.58;;;1.90;99.90;;;;;;5009436;28;20116;-74
2023/01/20 13:11:42;;;;;;;2.17;2.13;;;2.10;99.90;;;;;;5028608;28;20025;-74
2023/01/20 13:14:16;;;;;;;1.48;1.48;;;2.10;99.90;;;;;;5027657;28;20100;-74
2023/01/20 13:17:05;;;;;;;1.58;1.58;;;2.10;99.90;;;;;;5031116;28;20073;-74